createdAt,value
2018-03-19T00:02:26.207Z,-2.30
2018-03-19T00:04:54.371Z,-2.10
2018-03-19T00:07:22.515Z,-2.00
2018-03-19T00:09:51.425Z,-2.20
2018-03-19T00:12:19.582Z,-2.00
2018-03-19T00:14:48.524Z,-2.00
2018-03-19T00:17:17.225Z,-1.80
2018-03-19T00:19:45.374Z,-2.20
2018-03-19T00:22:13.519Z,-2.20
2018-03-19T00:24:41.670Z,-2.30
2018-03-19T00:27:10.726Z,-2.30
2018-03-19T00:29:38.871Z,-2.20
2018-03-19T00:32:07.058Z,-2.30
2018-03-19T00:34:35.233Z,-2.10
2018-03-19T00:37:03.376Z,-2.40
2018-03-19T00:39:31.514Z,-2.10
2018-03-19T00:41:59.754Z,-2.10
2018-03-19T00:44:27.923Z,-2.20
2018-03-19T00:46:56.065Z,-2.00
2018-03-19T00:49:24.274Z,-2.30
2018-03-19T00:51:52.435Z,-2.30
2018-03-19T00:54:20.571Z,-2.20
2018-03-19T00:56:49.478Z,-2.40
2018-03-19T00:59:17.666Z,-2.40
2018-03-19T01:01:45.808Z,-2.60
2018-03-19T01:04:14.730Z,-2.80
2018-03-19T01:06:42.911Z,-2.50
2018-03-19T01:09:11.054Z,-2.40
2018-03-19T01:11:39.200Z,-3.00
2018-03-19T01:14:08.130Z,-2.50
2018-03-19T01:16:36.299Z,-2.40
2018-03-19T01:19:04.438Z,-2.40
2018-03-19T01:21:33.348Z,-2.30
2018-03-19T01:24:02.295Z,-2.60
2018-03-19T01:26:30.442Z,-2.90
2018-03-19T01:28:58.597Z,-2.80
2018-03-19T01:31:26.760Z,-2.80
2018-03-19T01:33:54.903Z,-2.70
2018-03-19T01:36:23.194Z,-2.70
2018-03-19T01:38:52.409Z,-2.70
2018-03-19T01:41:20.558Z,-2.70
2018-03-19T01:43:49.482Z,-2.60
2018-03-19T01:46:17.626Z,-2.70
2018-03-19T01:48:46.570Z,-2.90
2018-03-19T01:51:14.717Z,-2.90
2018-03-19T01:53:42.861Z,-3.00
2018-03-19T01:56:11.782Z,-3.00
2018-03-19T01:58:39.913Z,-2.90
2018-03-19T02:01:08.075Z,-3.10
2018-03-19T02:03:36.262Z,-3.20
2018-03-19T02:06:05.197Z,-3.30
2018-03-19T02:08:33.340Z,-3.00
2018-03-19T02:11:02.277Z,-2.80
2018-03-19T02:13:30.431Z,-2.80
2018-03-19T02:15:58.565Z,-2.80
2018-03-19T02:18:27.482Z,-2.80
2018-03-19T02:20:55.637Z,-3.00
2018-03-19T02:23:24.970Z,-2.80
2018-03-19T02:25:53.246Z,-2.90
2018-03-19T02:28:21.486Z,-2.90
2018-03-19T02:30:49.582Z,-2.70
2018-03-19T02:33:17.742Z,-3.00
2018-03-19T02:35:45.888Z,-2.80
2018-03-19T02:38:14.799Z,-3.20
2018-03-19T02:40:42.957Z,-3.40
2018-03-19T02:43:11.868Z,-3.10
2018-03-19T02:45:40.011Z,-3.20
2018-03-19T02:48:08.201Z,-3.40
2018-03-19T02:50:37.113Z,-2.70
2018-03-19T02:53:05.278Z,-2.90
2018-03-19T02:55:33.439Z,-3.00
2018-03-19T02:58:02.350Z,-3.00
2018-03-19T03:00:30.518Z,-2.90
2018-03-19T03:02:58.670Z,-3.20
2018-03-19T03:05:27.582Z,-3.00
2018-03-19T03:07:55.733Z,-3.00
2018-03-19T03:10:24.662Z,-2.80
2018-03-19T03:12:52.832Z,-3.30
2018-03-19T03:15:20.973Z,-3.60
2018-03-19T03:17:50.802Z,-3.70
2018-03-19T03:20:18.972Z,-3.60
2018-03-19T03:22:47.150Z,-3.30
2018-03-19T03:25:16.038Z,-3.30
2018-03-19T03:27:44.190Z,-3.40
2018-03-19T03:30:13.111Z,-3.50
2018-03-19T03:32:41.287Z,-3.60
2018-03-19T03:35:09.566Z,-3.30
2018-03-19T03:37:37.710Z,-3.40
2018-03-19T03:40:05.850Z,-3.20
2018-03-19T03:42:34.079Z,-3.30
2018-03-19T03:45:02.254Z,-3.20
2018-03-19T03:47:30.432Z,-3.30
2018-03-19T03:49:58.710Z,-3.30
2018-03-19T03:52:26.856Z,-3.10
2018-03-19T03:54:54.989Z,-3.20
2018-03-19T03:57:23.525Z,-3.30
2018-03-19T03:59:51.657Z,-3.30
2018-03-19T04:02:20.563Z,-3.40
2018-03-19T04:04:48.745Z,-3.70
2018-03-19T04:07:16.881Z,-3.50
2018-03-19T04:09:45.022Z,-3.40
2018-03-19T04:12:13.271Z,-3.40
2018-03-19T04:14:41.416Z,-3.50
2018-03-19T04:17:10.362Z,-3.60
2018-03-19T04:19:38.506Z,-3.30
2018-03-19T04:22:06.657Z,-3.50
2018-03-19T04:24:35.597Z,-3.70
2018-03-19T04:27:03.741Z,-3.70
2018-03-19T04:29:31.890Z,-3.60
2018-03-19T04:32:00.836Z,-3.60
2018-03-19T04:34:28.985Z,-3.70
2018-03-19T04:36:57.169Z,-3.40
2018-03-19T04:39:25.326Z,-3.50
2018-03-19T04:41:53.518Z,-3.50
2018-03-19T04:44:21.678Z,-3.80
2018-03-19T04:46:49.822Z,-4.00
2018-03-19T04:49:18.746Z,-4.00
2018-03-19T04:51:46.889Z,-4.00
2018-03-19T04:54:15.083Z,-3.90
2018-03-19T04:56:43.919Z,-3.70
2018-03-19T04:59:12.061Z,-3.70
2018-03-19T05:01:40.222Z,-3.90
2018-03-19T05:04:08.382Z,-3.70
2018-03-19T05:06:36.877Z,-3.70
2018-03-19T05:09:05.037Z,-3.80
2018-03-19T05:11:33.178Z,-3.70
2018-03-19T05:14:02.098Z,-4.20
2018-03-19T05:16:30.277Z,-4.40
2018-03-19T05:18:58.462Z,-4.10
2018-03-19T05:21:26.602Z,-3.80
2018-03-19T05:23:54.759Z,-3.80
2018-03-19T05:26:23.666Z,-4.20
2018-03-19T05:28:51.837Z,-3.60
2018-03-19T05:31:19.986Z,-3.60
2018-03-19T05:33:48.942Z,-3.60
2018-03-19T05:36:17.114Z,-3.40
2018-03-19T05:38:45.270Z,-3.40
2018-03-19T05:41:13.450Z,-3.10
2018-03-19T05:43:41.606Z,-3.30
2018-03-19T05:46:09.769Z,-2.80
2018-03-19T05:48:37.914Z,-3.10
2018-03-19T05:51:06.078Z,-3.10
2018-03-19T05:53:34.250Z,-3.00
2018-03-19T05:56:02.482Z,-2.60
2018-03-19T05:58:30.653Z,-2.90
2018-03-19T06:00:58.836Z,-2.50
2018-03-19T06:03:26.988Z,-2.10
2018-03-19T06:05:55.126Z,-2.10
2018-03-19T06:08:24.490Z,-2.60
2018-03-19T06:10:52.630Z,-2.40
2018-03-19T06:13:20.822Z,-2.40
2018-03-19T06:15:48.997Z,-2.40
2018-03-19T06:18:17.158Z,-2.50
2018-03-19T06:20:45.297Z,-2.30
2018-03-19T06:23:14.246Z,-2.50
2018-03-19T06:25:42.503Z,-2.50
2018-03-19T06:28:10.661Z,-2.30
2018-03-19T06:30:38.817Z,-2.10
2018-03-19T06:33:06.982Z,-2.20
2018-03-19T06:35:35.885Z,-1.70
2018-03-19T06:38:04.045Z,-1.70
2018-03-19T06:40:32.970Z,-1.40
2018-03-19T06:43:01.135Z,-1.50
2018-03-19T06:45:29.318Z,-1.60
2018-03-19T06:47:57.466Z,-1.50
2018-03-19T06:50:25.630Z,-1.00
2018-03-19T06:52:54.538Z,-1.00
2018-03-19T06:55:22.684Z,-0.70
2018-03-19T06:57:51.614Z,-0.60
2018-03-19T07:00:19.752Z,-1.10
2018-03-19T07:02:48.682Z,-1.30
2018-03-19T07:05:16.870Z,-0.60
2018-03-19T07:07:45.022Z,-0.80
2018-03-19T07:10:13.168Z,-0.40
2018-03-19T07:12:42.169Z,-0.80
2018-03-19T07:15:10.311Z,-0.50
2018-03-19T07:17:38.475Z,0.00
2018-03-19T07:20:06.711Z,0.40
2018-03-19T07:22:34.943Z,0.40
2018-03-19T07:25:03.065Z,0.40
2018-03-19T07:27:31.195Z,0.50
2018-03-19T07:30:00.216Z,-0.10
2018-03-19T07:32:28.392Z,0.20
2018-03-19T07:34:56.546Z,0.30
2018-03-19T07:37:24.711Z,0.30
2018-03-19T07:39:52.850Z,0.40
2018-03-19T07:42:21.081Z,0.30
2018-03-19T07:44:49.227Z,0.30
2018-03-19T07:47:17.387Z,0.30
2018-03-19T07:49:46.287Z,0.60
2018-03-19T07:52:14.429Z,0.80
2018-03-19T07:54:42.590Z,0.70
2018-03-19T07:57:10.765Z,0.80
2018-03-19T07:59:38.869Z,0.90
2018-03-19T08:02:07.787Z,0.80
2018-03-19T08:04:35.923Z,1.10
2018-03-19T08:07:04.857Z,1.10
2018-03-19T08:09:32.992Z,0.90
2018-03-19T08:12:01.906Z,1.10
2018-03-19T08:14:30.051Z,1.70
2018-03-19T08:16:58.964Z,1.70
2018-03-19T08:19:27.117Z,1.60
2018-03-19T08:21:56.022Z,1.30
2018-03-19T08:24:24.678Z,1.70
2018-03-19T08:27:06.754Z,1.70
2018-03-19T08:29:35.001Z,2.00
2018-03-19T08:32:03.150Z,2.20
2018-03-19T08:34:31.318Z,2.20
2018-03-19T08:37:00.241Z,2.10
2018-03-19T08:39:28.411Z,2.00
2018-03-19T08:41:56.538Z,2.10
2018-03-19T08:44:25.453Z,2.10
2018-03-19T08:46:53.625Z,2.30
2018-03-19T08:49:21.766Z,2.20
2018-03-19T08:51:49.897Z,2.50
2018-03-19T08:54:18.055Z,2.30
2018-03-19T08:56:46.190Z,2.50
2018-03-19T08:59:15.090Z,2.40
2018-03-19T09:01:44.012Z,2.60
2018-03-19T09:04:12.545Z,2.80
2018-03-19T09:06:41.178Z,2.70
2018-03-19T09:09:09.331Z,2.60
2018-03-19T09:11:38.282Z,2.50
2018-03-19T09:14:06.454Z,2.40
2018-03-19T09:16:34.603Z,2.60
2018-03-19T09:19:02.748Z,3.20
2018-03-19T09:21:30.918Z,3.00
2018-03-19T09:23:59.060Z,3.00
2018-03-19T09:26:28.622Z,3.10
2018-03-19T09:28:57.165Z,3.20
2018-03-19T09:31:25.310Z,3.40
2018-03-19T09:33:53.460Z,3.50
2018-03-19T09:36:21.657Z,3.50
2018-03-19T09:38:49.790Z,3.60
2018-03-19T09:41:17.930Z,3.70
2018-03-19T09:43:46.095Z,3.90
2018-03-19T09:46:15.015Z,4.00
2018-03-19T09:48:43.151Z,4.00
2018-03-19T09:51:17.795Z,4.60
2018-03-19T09:53:45.934Z,4.90
2018-03-19T09:56:14.070Z,4.80
2018-03-19T09:58:42.226Z,5.00
2018-03-19T10:01:10.898Z,4.80
2018-03-19T10:03:39.030Z,5.30
2018-03-19T10:06:07.178Z,5.80
2018-03-19T10:08:35.407Z,6.10
2018-03-19T10:11:03.553Z,6.50
2018-03-19T10:13:31.786Z,6.50
2018-03-19T10:15:59.948Z,6.70
2018-03-19T10:18:28.118Z,6.90
2018-03-19T10:20:56.254Z,7.10
2018-03-19T10:23:25.179Z,7.10
2018-03-19T10:25:53.335Z,6.70
2018-03-19T10:28:21.493Z,6.80
2018-03-19T10:30:50.406Z,6.90
2018-03-19T10:33:18.546Z,7.10
2018-03-19T10:40:35.066Z,7.70
2018-03-19T10:43:03.294Z,7.80
2018-03-19T10:45:31.458Z,7.80
2018-03-19T10:47:59.890Z,7.50
2018-03-19T10:50:28.062Z,7.90
2018-03-19T10:52:57.274Z,8.50
2018-03-19T10:55:25.754Z,9.30
2018-03-19T10:57:54.650Z,9.70
2018-03-19T11:00:24.324Z,9.90
2018-03-19T11:02:54.685Z,9.10
2018-03-19T11:05:29.122Z,8.70
2018-03-19T11:08:02.733Z,9.20
2018-03-19T11:10:31.757Z,8.70
2018-03-19T11:12:59.919Z,8.90
2018-03-19T11:15:28.056Z,8.80
2018-03-19T11:17:56.213Z,9.10
2018-03-19T11:20:25.138Z,9.50
2018-03-19T11:22:53.295Z,9.50
2018-03-19T11:25:21.662Z,10.30
2018-03-19T11:27:50.582Z,10.30
2018-03-19T11:30:18.758Z,11.10
2018-03-19T11:32:46.918Z,12.30
2018-03-19T11:35:15.091Z,12.40
2018-03-19T11:37:43.234Z,12.10
2018-03-19T11:40:12.155Z,13.00
2018-03-19T11:42:40.307Z,12.20
2018-03-19T11:45:09.240Z,12.40
2018-03-19T11:47:37.390Z,13.40
2018-03-19T11:50:05.525Z,13.00
2018-03-19T11:52:33.682Z,13.10
2018-03-19T11:55:01.827Z,13.40
2018-03-19T11:57:29.970Z,13.70
2018-03-19T11:59:58.167Z,13.00
2018-03-19T12:02:26.345Z,13.50
2018-03-19T12:04:54.513Z,13.90
2018-03-19T12:07:22.649Z,15.80
2018-03-19T12:09:50.956Z,15.80
2018-03-19T12:12:19.195Z,16.30
2018-03-19T12:14:47.931Z,17.70
2018-03-19T12:17:16.131Z,20.30
2018-03-19T12:19:45.062Z,18.40
2018-03-19T12:22:13.267Z,22.30
2018-03-19T12:24:41.414Z,24.00
2018-03-19T12:27:09.617Z,25.90
2018-03-19T12:29:37.782Z,24.90
2018-03-19T12:32:05.921Z,26.90
2018-03-19T12:34:34.136Z,27.20
2018-03-19T12:37:02.303Z,25.40
2018-03-19T12:39:30.437Z,25.50
2018-03-19T12:41:59.375Z,26.00
2018-03-19T12:44:27.569Z,25.90
2018-03-19T12:46:55.754Z,27.10
2018-03-19T12:49:23.934Z,29.40
2018-03-19T12:51:52.869Z,28.40
2018-03-19T12:54:21.011Z,27.40
2018-03-19T12:56:49.942Z,27.30
2018-03-19T12:59:18.103Z,26.10
2018-03-19T13:01:46.234Z,29.00
2018-03-19T13:04:15.526Z,29.20
2018-03-19T13:06:43.681Z,30.20
2018-03-19T13:09:12.084Z,30.00
2018-03-19T13:11:40.997Z,29.70
2018-03-19T13:14:09.188Z,31.10
2018-03-19T13:16:37.382Z,33.50
2018-03-19T13:19:06.627Z,34.70
2018-03-19T13:21:35.533Z,33.10
2018-03-19T13:24:03.670Z,31.90
2018-03-19T13:26:31.832Z,33.40
2018-03-19T13:28:59.984Z,29.90
2018-03-19T13:31:28.191Z,31.60
2018-03-19T13:33:57.124Z,31.80
2018-03-19T13:36:25.286Z,33.70
2018-03-19T13:38:53.448Z,34.20
2018-03-19T13:41:22.354Z,36.40
2018-03-19T13:43:50.531Z,35.20
2018-03-19T13:46:19.705Z,35.80
2018-03-19T13:48:47.822Z,35.70
2018-03-19T13:51:15.982Z,36.00
2018-03-19T13:53:44.503Z,37.30
2018-03-19T13:56:12.658Z,37.10
2018-03-19T13:58:40.810Z,37.30
2018-03-19T14:01:08.980Z,37.30
2018-03-19T14:03:37.129Z,36.90
2018-03-19T14:06:05.303Z,38.60
2018-03-19T14:08:33.445Z,38.00
2018-03-19T14:11:01.591Z,39.10
2018-03-19T14:13:29.808Z,40.00
2018-03-19T14:15:57.924Z,39.50
2018-03-19T14:18:26.091Z,39.20
2018-03-19T14:20:54.256Z,35.40
2018-03-19T14:23:22.396Z,37.10
2018-03-19T14:25:51.358Z,37.60
2018-03-19T14:28:19.679Z,36.60
2018-03-19T14:30:47.831Z,37.10
2018-03-19T14:33:16.777Z,36.90
2018-03-19T14:35:45.097Z,36.10
2018-03-19T14:38:14.031Z,36.70
2018-03-19T14:40:42.606Z,37.80
2018-03-19T14:43:10.737Z,38.50
2018-03-19T14:45:39.651Z,37.90
2018-03-19T14:48:07.810Z,38.60
2018-03-19T14:50:36.820Z,33.50
2018-03-19T14:53:04.928Z,33.10
2018-03-19T14:55:33.103Z,32.50
2018-03-19T14:58:01.269Z,34.40
2018-03-19T15:00:29.439Z,35.20
2018-03-19T15:02:57.583Z,36.10
2018-03-19T15:05:25.750Z,36.60
2018-03-19T15:07:53.895Z,37.60
2018-03-19T15:10:22.126Z,36.80
2018-03-19T15:12:50.289Z,37.20
2018-03-19T15:15:18.418Z,37.10
2018-03-19T15:17:47.327Z,36.70
2018-03-19T15:20:15.489Z,36.00
2018-03-19T15:22:44.398Z,35.30
2018-03-19T15:25:12.533Z,35.60
2018-03-19T15:27:40.764Z,35.30
2018-03-19T15:30:09.650Z,34.90
2018-03-19T15:32:38.244Z,34.70
2018-03-19T15:35:06.390Z,31.80
2018-03-19T15:37:34.679Z,32.50
2018-03-19T15:40:02.869Z,31.90
2018-03-19T15:42:31.002Z,29.90
2018-03-19T15:44:59.142Z,29.60
2018-03-19T15:47:27.298Z,29.10
2018-03-19T15:49:55.855Z,29.10
2018-03-19T15:52:24.022Z,28.20
2018-03-19T15:54:52.153Z,28.70
2018-03-19T15:57:20.314Z,28.30
2018-03-19T15:59:48.475Z,28.70
2018-03-19T16:02:16.617Z,29.90
2018-03-19T16:04:44.810Z,29.80
2018-03-19T16:07:12.971Z,28.60
2018-03-19T16:09:41.154Z,27.80
2018-03-19T16:12:09.300Z,26.30
2018-03-19T16:14:37.434Z,24.40
2018-03-19T16:17:05.602Z,22.10
2018-03-19T16:19:33.733Z,18.90
2018-03-19T16:22:01.919Z,17.60
2018-03-19T16:24:30.071Z,17.50
2018-03-19T16:26:58.217Z,17.60
2018-03-19T16:29:26.418Z,17.50
2018-03-19T16:31:54.570Z,19.10
2018-03-19T16:34:22.703Z,20.00
2018-03-19T16:36:51.092Z,18.70
2018-03-19T16:39:19.625Z,19.00
2018-03-19T16:41:47.793Z,19.50
2018-03-19T16:44:15.958Z,18.20
2018-03-19T16:46:44.093Z,18.70
2018-03-19T16:49:12.998Z,17.40
2018-03-19T16:51:41.925Z,16.40
2018-03-19T16:54:10.062Z,15.00
2018-03-19T16:56:38.967Z,13.60
2018-03-19T16:59:07.142Z,12.50
2018-03-19T17:01:35.294Z,11.30
2018-03-19T17:04:04.561Z,10.60
2018-03-19T17:06:32.722Z,8.90
2018-03-19T17:09:00.863Z,8.10
2018-03-19T17:11:29.020Z,7.80
2018-03-19T17:13:57.224Z,7.20
2018-03-19T17:16:25.361Z,6.60
2018-03-19T17:18:53.538Z,6.30
2018-03-19T17:21:21.667Z,5.50
2018-03-19T17:23:49.811Z,5.10
2018-03-19T17:26:18.088Z,4.90
2018-03-19T17:28:46.242Z,4.60
2018-03-19T17:31:14.378Z,4.50
2018-03-19T17:33:43.329Z,4.20
2018-03-19T17:36:11.521Z,4.20
2018-03-19T17:38:39.654Z,4.00
2018-03-19T17:41:07.844Z,3.90
2018-03-19T17:43:36.002Z,3.80
2018-03-19T17:46:04.152Z,3.60
2018-03-19T17:48:32.324Z,3.30
2018-03-19T17:51:02.012Z,3.60
2018-03-19T17:53:31.365Z,3.40
2018-03-19T17:55:59.524Z,3.50
2018-03-19T17:58:27.658Z,3.60
2018-03-19T18:00:55.796Z,3.50
2018-03-19T18:03:23.954Z,3.60
2018-03-19T18:05:52.323Z,3.50
2018-03-19T18:08:20.456Z,3.30
2018-03-19T18:10:49.400Z,3.30
2018-03-19T18:13:17.573Z,3.30
2018-03-19T18:15:45.717Z,3.10
2018-03-19T18:18:13.861Z,3.10
2018-03-19T18:20:42.811Z,3.20
2018-03-19T18:23:10.948Z,3.10
2018-03-19T18:25:39.094Z,2.80
2018-03-19T18:28:07.243Z,2.70
2018-03-19T18:30:35.387Z,2.90
2018-03-19T18:33:03.549Z,2.70
2018-03-19T18:35:31.687Z,2.80
2018-03-19T18:38:00.623Z,2.60
2018-03-19T18:40:28.776Z,2.60
2018-03-19T18:42:56.978Z,2.40
2018-03-19T18:45:25.128Z,2.30
2018-03-19T18:47:53.319Z,2.20
2018-03-19T18:50:21.861Z,2.30
2018-03-19T18:52:50.801Z,2.10
2018-03-19T18:55:18.998Z,2.10
2018-03-19T18:57:47.142Z,2.00
2018-03-19T19:00:15.296Z,2.10
2018-03-19T19:02:43.490Z,1.90
2018-03-19T19:05:11.756Z,1.80
2018-03-19T19:07:39.894Z,1.90
2018-03-19T19:10:08.824Z,1.60
2018-03-19T19:12:37.201Z,1.50
2018-03-19T19:15:05.367Z,1.60
2018-03-19T19:17:33.575Z,1.80
2018-03-19T19:20:08.920Z,2.00
2018-03-19T19:22:37.837Z,2.00
2018-03-19T19:25:07.196Z,2.00
2018-03-19T19:27:35.371Z,2.10
2018-03-19T19:30:03.502Z,1.90
2018-03-19T19:32:32.161Z,1.90
2018-03-19T19:35:01.078Z,2.00
2018-03-19T19:37:29.210Z,2.20
2018-03-19T19:39:57.383Z,2.00
2018-03-19T19:42:25.539Z,1.30
2018-03-19T19:44:54.025Z,1.60
2018-03-19T19:47:22.294Z,1.60
2018-03-19T19:49:51.182Z,2.00
2018-03-19T19:52:19.326Z,2.20
2018-03-19T19:54:47.499Z,2.10
2018-03-19T19:57:16.450Z,2.00
2018-03-19T19:59:45.347Z,1.90
2018-03-19T20:02:14.278Z,1.30
2018-03-19T20:04:42.419Z,1.50
2018-03-19T20:07:10.626Z,1.40
2018-03-19T20:09:38.791Z,1.30
2018-03-19T20:12:06.930Z,1.20
2018-03-19T20:14:35.837Z,1.10
2018-03-19T20:17:04.003Z,0.80
2018-03-19T20:19:32.146Z,0.90
2018-03-19T20:22:00.291Z,1.20
2018-03-19T20:24:28.463Z,1.30
2018-03-19T20:26:56.607Z,1.40
2018-03-19T20:29:24.763Z,1.50
2018-03-19T20:31:52.931Z,1.40
2018-03-19T20:34:21.096Z,1.70
2018-03-19T20:36:50.007Z,1.30
2018-03-19T20:39:18.215Z,1.30
2018-03-19T20:41:46.366Z,1.40
2018-03-19T20:44:14.506Z,1.50
2018-03-19T20:46:43.429Z,1.40
2018-03-19T20:49:11.614Z,1.20
2018-03-19T20:51:39.771Z,1.40
2018-03-19T20:54:07.934Z,1.40
2018-03-19T20:56:36.119Z,1.50
2018-03-19T20:59:04.263Z,1.60
2018-03-19T21:01:33.190Z,1.50
2018-03-19T21:04:01.400Z,1.60
2018-03-19T21:06:29.703Z,1.50
2018-03-19T21:08:58.638Z,1.40
2018-03-19T21:11:26.782Z,1.50
2018-03-19T21:13:54.917Z,1.40
2018-03-19T21:16:23.252Z,1.30
2018-03-19T21:18:51.391Z,1.30
2018-03-19T21:21:20.019Z,1.30
2018-03-19T21:23:48.195Z,1.50
2018-03-19T21:26:16.369Z,1.50
2018-03-19T21:28:44.521Z,1.50
2018-03-19T21:31:12.657Z,1.10
2018-03-19T21:33:41.621Z,1.30
2018-03-19T21:36:10.158Z,1.20
2018-03-19T21:38:38.310Z,0.90
2018-03-19T21:41:06.481Z,0.50
2018-03-19T21:43:35.395Z,1.00
2018-03-19T21:46:03.572Z,1.10
2018-03-19T21:48:31.742Z,0.90
2018-03-19T21:50:59.881Z,0.90
2018-03-19T21:53:28.791Z,0.80
2018-03-19T21:55:56.951Z,0.70
2018-03-19T21:58:25.858Z,0.50
2018-03-19T22:00:54.022Z,0.40
2018-03-19T22:03:22.182Z,0.30
2018-03-19T22:05:51.525Z,0.50
2018-03-19T22:08:19.702Z,0.00
2018-03-19T22:10:47.851Z,-0.30
2018-03-19T22:13:16.000Z,0.00
2018-03-19T22:15:45.729Z,-0.30
2018-03-19T22:18:13.880Z,-0.20
2018-03-19T22:20:42.812Z,0.20
2018-03-19T22:23:11.337Z,0.40
2018-03-19T22:25:39.470Z,0.40
2018-03-19T22:28:07.664Z,0.60
2018-03-19T22:30:35.899Z,0.90
2018-03-19T22:33:04.052Z,0.80
2018-03-19T22:35:32.213Z,0.60
2018-03-19T22:38:01.258Z,1.00
2018-03-19T22:40:29.399Z,1.10
2018-03-19T22:42:57.537Z,0.50
2018-03-19T22:45:25.756Z,0.70
2018-03-19T22:47:54.661Z,0.90
2018-03-19T22:50:22.816Z,0.90
2018-03-19T22:52:51.100Z,0.80
2018-03-19T22:55:19.246Z,0.80
2018-03-19T22:57:48.153Z,0.80
2018-03-19T23:00:16.322Z,0.80
2018-03-19T23:02:44.463Z,0.70
2018-03-19T23:05:28.274Z,0.70
2018-03-19T23:07:56.434Z,0.60
2018-03-19T23:10:24.596Z,0.60
2018-03-19T23:12:52.762Z,0.50
2018-03-19T23:15:20.940Z,0.60
2018-03-19T23:17:49.094Z,0.70
2018-03-19T23:20:17.244Z,0.70
2018-03-19T23:22:46.174Z,0.60
2018-03-19T23:25:14.337Z,0.60
2018-03-19T23:27:43.245Z,0.50
2018-03-19T23:30:11.386Z,0.50
2018-03-19T23:32:39.582Z,0.30
2018-03-19T23:35:07.727Z,0.20
2018-03-19T23:37:36.654Z,-0.10
2018-03-19T23:40:04.823Z,-0.40
2018-03-19T23:42:32.966Z,0.00
2018-03-19T23:45:01.965Z,0.10
2018-03-19T23:47:30.135Z,0.10
2018-03-19T23:49:58.330Z,0.00
2018-03-19T23:52:26.512Z,0.10
2018-03-19T23:54:54.683Z,-0.10
2018-03-19T23:57:22.830Z,0.20
2018-03-19T23:59:51.032Z,-0.10
